Plain Dealing, Louisiana
Current Conditions -  °F | °C
As of 12:53 PM on Friday 21 Nov 2014 (Local Time) from KDTN Reporting Station
Light Rain Light Rain  
Wind Chill: 58°   Ceiling: 4500
Heat Index: 58°   Visibility: 10mi
Dew Point: 53°   Wind: 10mph
Humidity: 84%   Direction: 150°SSE
Pressure: 30.18"   Gusts: NA
Location:  32.91°N, 93.7°W
Report Text: KDTN 211853Z 15009KT 10SM -RA OVC045 14/12 A3018 RMK AO2 RAB22E32B48 SLP219 P0000 T01440117
Loading
Personal Weather Stations






























Interactive Weather Map New forecast layout! Learn more

10-Day Weather Forecast

Advertisements
Track Severe Weather on mobile